createdAt,value
2022-10-08T00:01:00.153Z,99.90
2022-10-08T00:03:29.264Z,99.90
2022-10-08T00:06:11.938Z,99.90
2022-10-08T00:08:41.233Z,99.90
2022-10-08T00:11:11.755Z,99.90
2022-10-08T00:13:40.983Z,99.90
2022-10-08T00:16:14.312Z,99.90
2022-10-08T00:18:42.984Z,99.90
2022-10-08T00:21:14.975Z,99.90
2022-10-08T00:23:42.470Z,99.90
2022-10-08T00:26:09.798Z,99.90
2022-10-08T00:28:38.803Z,99.90
2022-10-08T00:31:17.210Z,99.90
2022-10-08T00:33:43.934Z,99.90
2022-10-08T00:36:13.045Z,99.90
2022-10-08T00:38:40.036Z,99.90
2022-10-08T00:41:14.954Z,99.90
2022-10-08T00:43:50.571Z,99.90
2022-10-08T00:46:23.516Z,99.90
2022-10-08T00:48:55.126Z,99.90
2022-10-08T00:51:21.930Z,99.90
2022-10-08T00:53:48.584Z,99.90
2022-10-08T00:56:15.405Z,99.90
2022-10-08T00:58:43.440Z,99.90
2022-10-08T01:01:10.348Z,99.90
2022-10-08T01:03:37.196Z,99.90
2022-10-08T01:06:21.820Z,99.90
2022-10-08T01:08:48.439Z,99.90
2022-10-08T01:11:42.394Z,99.90
2022-10-08T01:14:20.772Z,99.90
2022-10-08T01:17:06.802Z,99.90
2022-10-08T01:20:04.837Z,99.90
2022-10-08T01:22:39.469Z,99.90
2022-10-08T01:25:36.083Z,99.90
2022-10-08T01:28:11.167Z,99.90
2022-10-08T01:30:45.183Z,99.90
2022-10-08T01:33:24.803Z,99.90
2022-10-08T01:35:57.241Z,99.90
2022-10-08T01:38:27.063Z,99.90
2022-10-08T01:40:58.959Z,99.90
2022-10-08T01:43:28.960Z,99.90
2022-10-08T01:46:01.878Z,99.90
2022-10-08T01:48:33.979Z,99.90
2022-10-08T01:51:13.740Z,99.90
2022-10-08T01:53:42.311Z,99.90
2022-10-08T01:56:12.010Z,99.90
2022-10-08T01:59:00.334Z,99.90
2022-10-08T02:01:52.870Z,99.90
2022-10-08T02:04:35.670Z,99.90
2022-10-08T02:07:20.625Z,99.90
2022-10-08T02:09:52.037Z,99.90
2022-10-08T02:12:19.953Z,99.90
2022-10-08T02:14:55.686Z,99.90
2022-10-08T02:17:39.330Z,99.90
2022-10-08T02:20:18.366Z,99.90
2022-10-08T02:23:04.496Z,99.90
2022-10-08T02:25:37.413Z,99.90
2022-10-08T02:28:20.232Z,99.90
2022-10-08T02:30:52.477Z,99.90
2022-10-08T02:33:26.642Z,99.90
2022-10-08T02:35:57.437Z,99.90
2022-10-08T02:38:38.827Z,99.90
2022-10-08T02:41:08.498Z,99.90
2022-10-08T02:43:40.151Z,99.90
2022-10-08T02:46:28.429Z,99.90
2022-10-08T02:49:06.313Z,99.90
2022-10-08T02:51:38.135Z,99.90
2022-10-08T02:54:06.523Z,99.90
2022-10-08T02:56:45.914Z,99.90
2022-10-08T02:59:14.804Z,99.90
2022-10-08T03:02:02.558Z,99.90
2022-10-08T03:04:34.961Z,99.90
2022-10-08T03:07:01.704Z,99.90
2022-10-08T03:09:39.113Z,99.90
2022-10-08T03:12:07.043Z,99.90
2022-10-08T03:14:39.220Z,99.90
2022-10-08T03:17:12.958Z,99.90
2022-10-08T03:19:39.603Z,99.90
2022-10-08T03:22:07.946Z,99.90
2022-10-08T03:24:35.854Z,99.90
2022-10-08T03:27:03.293Z,99.90
2022-10-08T03:29:29.936Z,99.90
2022-10-08T03:31:56.584Z,99.90
2022-10-08T03:34:25.636Z,99.90
2022-10-08T03:36:52.280Z,99.90
2022-10-08T03:39:19.050Z,99.90
2022-10-08T03:41:45.739Z,99.90
2022-10-08T03:44:12.437Z,99.90
2022-10-08T03:46:39.402Z,99.90
2022-10-08T03:49:06.403Z,99.90
2022-10-08T03:51:33.108Z,99.90
2022-10-08T03:53:59.778Z,99.90
2022-10-08T03:56:26.452Z,99.90
2022-10-08T03:58:55.102Z,99.90
2022-10-08T04:01:22.059Z,99.90
2022-10-08T04:03:48.931Z,99.90
2022-10-08T04:06:15.990Z,99.90
2022-10-08T04:08:42.686Z,99.90
2022-10-08T04:11:11.656Z,99.90
2022-10-08T04:13:38.444Z,99.90
2022-10-08T04:16:12.238Z,99.90
2022-10-08T04:18:39.101Z,99.90
2022-10-08T04:21:08.183Z,99.90
2022-10-08T04:23:37.075Z,99.90
2022-10-08T04:26:04.476Z,99.90
2022-10-08T04:28:34.944Z,99.90
2022-10-08T04:31:07.426Z,99.90
2022-10-08T04:33:35.002Z,99.90
2022-10-08T04:36:06.902Z,99.90
2022-10-08T04:38:33.517Z,99.90
2022-10-08T04:41:05.609Z,99.90
2022-10-08T04:43:33.273Z,99.90
2022-10-08T04:46:00.041Z,99.90
2022-10-08T04:48:26.844Z,99.90
2022-10-08T04:51:01.793Z,99.90
2022-10-08T04:53:29.113Z,99.90
2022-10-08T04:55:56.999Z,99.90
2022-10-08T04:58:25.670Z,99.90
2022-10-08T05:00:52.432Z,99.90
2022-10-08T05:03:19.142Z,99.90
2022-10-08T05:05:46.633Z,99.90
2022-10-08T05:08:13.390Z,99.90
2022-10-08T05:10:47.170Z,99.90
2022-10-08T05:13:13.808Z,99.90
2022-10-08T05:15:40.518Z,99.90
2022-10-08T05:18:07.195Z,99.90
2022-10-08T05:20:36.416Z,99.90
2022-10-08T05:23:03.328Z,99.90
2022-10-08T05:25:34.751Z,99.90
2022-10-08T05:28:02.570Z,99.90
2022-10-08T05:30:29.317Z,99.90
2022-10-08T05:32:56.244Z,99.90
2022-10-08T05:35:22.981Z,99.90
2022-10-08T05:37:49.607Z,99.90
2022-10-08T05:40:16.458Z,99.90
2022-10-08T05:42:43.101Z,99.90
2022-10-08T05:45:10.340Z,99.90
2022-10-08T05:47:36.972Z,99.90
2022-10-08T05:50:04.785Z,99.90
2022-10-08T05:52:31.449Z,99.90
2022-10-08T05:54:58.117Z,99.90
2022-10-08T05:57:24.759Z,99.90
2022-10-08T05:59:51.409Z,99.90
2022-10-08T06:02:18.046Z,99.90
2022-10-08T06:04:44.845Z,99.90
2022-10-08T06:07:11.541Z,99.90
2022-10-08T06:09:38.425Z,99.90
2022-10-08T06:12:06.425Z,99.90
2022-10-08T06:14:33.057Z,99.90
2022-10-08T06:16:59.722Z,99.90
2022-10-08T06:19:26.442Z,99.90
2022-10-08T06:21:53.092Z,99.90
2022-10-08T06:24:19.913Z,99.90
2022-10-08T06:26:46.577Z,99.90
2022-10-08T06:29:17.946Z,99.90
2022-10-08T06:31:45.236Z,99.90
2022-10-08T06:34:12.087Z,99.90
2022-10-08T06:36:39.346Z,99.90
2022-10-08T06:39:10.405Z,99.90
2022-10-08T06:41:37.511Z,99.90
2022-10-08T06:44:06.472Z,99.90
2022-10-08T06:46:33.827Z,99.90
2022-10-08T06:49:01.685Z,99.90
2022-10-08T06:51:29.453Z,99.90
2022-10-08T06:54:01.443Z,99.90
2022-10-08T06:56:33.619Z,99.90
2022-10-08T06:59:00.268Z,99.90
2022-10-08T07:01:32.648Z,99.90
2022-10-08T07:04:00.683Z,99.90
2022-10-08T07:06:28.466Z,99.90
2022-10-08T07:08:57.129Z,99.90
2022-10-08T07:11:24.656Z,99.90
2022-10-08T07:13:51.355Z,99.90
2022-10-08T07:16:23.203Z,99.90
2022-10-08T07:18:51.683Z,99.90
2022-10-08T07:21:20.789Z,99.90
2022-10-08T07:23:47.568Z,99.90
2022-10-08T07:26:19.622Z,99.90
2022-10-08T07:28:52.551Z,99.90
2022-10-08T07:31:22.214Z,99.90
2022-10-08T07:33:49.192Z,99.90
2022-10-08T07:36:18.437Z,99.90
2022-10-08T07:38:45.734Z,99.90
2022-10-08T07:41:13.067Z,99.90
2022-10-08T07:43:41.193Z,99.90
2022-10-08T07:46:09.609Z,99.90
2022-10-08T07:48:36.697Z,99.90
2022-10-08T07:51:17.890Z,99.90
2022-10-08T07:53:45.126Z,99.90
2022-10-08T07:56:15.098Z,99.90
2022-10-08T07:58:42.438Z,99.90
2022-10-08T08:01:16.063Z,99.90
2022-10-08T08:03:43.525Z,99.90
2022-10-08T08:06:15.595Z,99.90
2022-10-08T08:08:44.756Z,99.90
2022-10-08T08:11:14.249Z,99.90
2022-10-08T08:13:42.184Z,99.90
2022-10-08T08:16:12.157Z,99.90
2022-10-08T08:18:41.887Z,99.90
2022-10-08T08:21:11.354Z,99.90
2022-10-08T08:23:43.973Z,99.90
2022-10-08T08:26:13.012Z,99.90
2022-10-08T08:28:40.491Z,99.90
2022-10-08T08:31:13.077Z,99.90
2022-10-08T08:33:39.890Z,99.90
2022-10-08T08:36:07.330Z,99.90
2022-10-08T08:38:37.856Z,99.90
2022-10-08T08:41:33.598Z,99.90
2022-10-08T08:44:10.336Z,99.90
2022-10-08T08:46:41.020Z,99.90
2022-10-08T08:49:19.872Z,99.90
2022-10-08T08:51:46.629Z,99.90
2022-10-08T08:54:13.339Z,99.90
2022-10-08T08:56:40.334Z,99.90
2022-10-08T08:59:19.131Z,99.90
2022-10-08T09:01:48.380Z,99.90
2022-10-08T09:04:33.809Z,99.90
2022-10-08T09:07:01.984Z,99.90
2022-10-08T09:09:39.410Z,99.90
2022-10-08T09:12:22.681Z,99.90
2022-10-08T09:14:55.007Z,99.90
2022-10-08T09:17:30.145Z,99.90
2022-10-08T09:19:57.152Z,99.90
2022-10-08T09:22:35.093Z,99.90
2022-10-08T09:25:06.722Z,99.90
2022-10-08T09:27:49.942Z,99.90
2022-10-08T09:30:47.800Z,99.90
2022-10-08T09:33:18.364Z,99.90
2022-10-08T09:35:52.982Z,99.90
2022-10-08T09:38:28.602Z,99.90
2022-10-08T09:41:18.520Z,99.90
2022-10-08T09:44:04.433Z,99.90
2022-10-08T09:46:33.219Z,99.90
2022-10-08T09:49:21.681Z,99.90
2022-10-08T09:51:49.886Z,99.90
2022-10-08T09:54:33.072Z,99.90
2022-10-08T09:57:01.089Z,99.90
2022-10-08T09:59:31.437Z,99.90
2022-10-08T10:01:58.852Z,99.90
2022-10-08T10:04:37.823Z,99.90
2022-10-08T10:07:05.900Z,99.90
2022-10-08T10:09:49.285Z,99.90
2022-10-08T10:12:31.867Z,99.90
2022-10-08T10:15:10.030Z,99.90
2022-10-08T10:17:43.516Z,99.90
2022-10-08T10:20:29.633Z,99.90
2022-10-08T10:23:11.513Z,99.90
2022-10-08T10:25:48.573Z,99.90
2022-10-08T10:28:43.190Z,99.90
2022-10-08T10:31:12.964Z,99.90
2022-10-08T10:34:02.800Z,99.90
2022-10-08T10:36:37.433Z,99.90
2022-10-08T10:39:21.896Z,99.90
2022-10-08T10:41:54.037Z,99.90
2022-10-08T10:44:26.429Z,99.90
2022-10-08T10:46:57.774Z,99.90
2022-10-08T10:49:38.134Z,99.90
2022-10-08T10:52:19.502Z,99.90
2022-10-08T10:55:20.225Z,99.90
2022-10-08T10:58:05.606Z,99.90
2022-10-08T11:00:56.998Z,99.90
2022-10-08T11:03:43.902Z,99.90
2022-10-08T11:06:28.951Z,99.90
2022-10-08T11:09:10.618Z,99.90
2022-10-08T11:11:59.695Z,99.90
2022-10-08T11:14:50.212Z,99.90
2022-10-08T11:17:41.481Z,99.90
2022-10-08T11:20:39.726Z,99.90
2022-10-08T11:23:45.517Z,99.90
2022-10-08T11:26:25.264Z,99.90
2022-10-08T11:29:23.797Z,99.90
2022-10-08T11:31:52.687Z,99.90
2022-10-08T11:34:25.107Z,99.90
2022-10-08T11:36:54.696Z,99.90
2022-10-08T11:39:26.379Z,99.90
2022-10-08T11:42:17.970Z,99.90
2022-10-08T11:44:44.747Z,99.90
2022-10-08T11:47:40.064Z,99.90
2022-10-08T11:50:21.186Z,99.90
2022-10-08T11:52:48.154Z,99.90
2022-10-08T11:55:26.897Z,99.90
2022-10-08T11:58:08.139Z,99.90
2022-10-08T12:00:48.288Z,99.90
2022-10-08T12:03:37.073Z,99.90
2022-10-08T12:06:16.105Z,99.90
2022-10-08T12:08:59.033Z,99.90
2022-10-08T12:11:31.731Z,99.90
2022-10-08T12:14:14.342Z,99.90
2022-10-08T12:16:56.772Z,99.90
2022-10-08T12:19:38.216Z,99.90
2022-10-08T12:22:25.164Z,99.90
2022-10-08T12:24:57.030Z,99.90
2022-10-08T12:27:35.368Z,99.90
2022-10-08T12:30:14.046Z,99.90
2022-10-08T12:32:43.831Z,99.90
2022-10-08T12:35:33.870Z,99.90
2022-10-08T12:38:15.399Z,99.90
2022-10-08T12:41:10.018Z,99.90
2022-10-08T12:44:16.689Z,99.90
2022-10-08T12:46:50.711Z,99.90
2022-10-08T12:49:28.329Z,99.90
2022-10-08T12:51:58.020Z,99.90
2022-10-08T12:54:27.771Z,99.90
2022-10-08T12:56:55.021Z,99.90
2022-10-08T12:59:24.848Z,99.90
2022-10-08T13:01:53.094Z,99.90
2022-10-08T13:04:23.241Z,99.90
2022-10-08T13:06:51.896Z,99.90
2022-10-08T13:09:33.455Z,99.90
2022-10-08T13:12:03.948Z,99.90
2022-10-08T13:14:32.125Z,99.90
2022-10-08T13:16:59.014Z,99.90
2022-10-08T13:19:30.796Z,99.90
2022-10-08T13:21:59.425Z,99.90
2022-10-08T13:24:26.045Z,99.90
2022-10-08T13:26:54.910Z,99.90
2022-10-08T13:29:21.620Z,99.90
2022-10-08T13:32:14.600Z,99.90
2022-10-08T13:34:41.270Z,99.90
2022-10-08T13:37:23.893Z,99.90
2022-10-08T13:39:54.446Z,99.90
2022-10-08T13:42:24.436Z,99.90
2022-10-08T13:44:52.114Z,99.90
2022-10-08T13:47:20.829Z,99.90
2022-10-08T13:49:48.006Z,99.90
2022-10-08T13:52:19.599Z,99.90
2022-10-08T13:54:47.248Z,99.90
2022-10-08T13:57:14.101Z,99.90
2022-10-08T13:59:40.736Z,99.90
2022-10-08T14:02:10.075Z,99.90
2022-10-08T14:04:36.782Z,99.90
2022-10-08T14:07:03.618Z,99.90
2022-10-08T14:09:31.421Z,99.90
2022-10-08T14:12:01.842Z,99.90
2022-10-08T14:14:28.775Z,99.90
2022-10-08T14:16:55.495Z,99.90
2022-10-08T14:19:22.668Z,99.90
2022-10-08T14:21:50.306Z,99.90
2022-10-08T14:24:17.220Z,99.20
2022-10-08T14:26:44.154Z,99.30
2022-10-08T14:29:10.876Z,99.70
2022-10-08T14:31:38.024Z,99.90
2022-10-08T14:34:05.128Z,99.90
2022-10-08T14:36:37.404Z,99.90
2022-10-08T14:39:05.066Z,99.90
2022-10-08T14:41:32.278Z,99.90
2022-10-08T14:43:59.055Z,99.90
2022-10-08T14:46:26.019Z,99.90
2022-10-08T14:48:52.738Z,99.90
2022-10-08T14:51:19.573Z,99.90
2022-10-08T14:53:46.288Z,99.90
2022-10-08T14:56:13.272Z,99.50
2022-10-08T14:58:40.259Z,99.20
2022-10-08T15:01:07.143Z,98.40
2022-10-08T15:03:33.900Z,98.20
2022-10-08T15:06:00.956Z,98.30
2022-10-08T15:08:28.293Z,98.50
2022-10-08T15:10:55.047Z,98.60
2022-10-08T15:13:21.722Z,97.80
2022-10-08T15:15:48.480Z,97.70
2022-10-08T15:18:15.354Z,97.80
2022-10-08T15:20:42.030Z,97.30
2022-10-08T15:23:10.280Z,97.90
2022-10-08T15:25:37.139Z,98.50
2022-10-08T15:28:04.239Z,99.00
2022-10-08T15:30:30.993Z,98.70
2022-10-08T15:33:03.830Z,99.20
2022-10-08T15:35:34.648Z,99.30
2022-10-08T15:38:01.394Z,99.90
2022-10-08T15:40:30.666Z,99.90
2022-10-08T15:42:57.670Z,99.90
2022-10-08T15:45:24.356Z,99.90
2022-10-08T15:47:50.996Z,99.90
2022-10-08T15:50:17.658Z,99.90
2022-10-08T15:52:46.444Z,99.90
2022-10-08T15:55:13.380Z,99.90
2022-10-08T15:57:40.035Z,99.90
2022-10-08T16:00:07.386Z,99.90
2022-10-08T16:02:38.622Z,99.90
2022-10-08T16:05:05.639Z,99.90
2022-10-08T16:07:32.281Z,99.90
2022-10-08T16:09:58.933Z,99.90
2022-10-08T16:12:25.581Z,99.90
2022-10-08T16:14:52.692Z,99.90
2022-10-08T16:17:19.334Z,99.90
2022-10-08T16:19:46.016Z,99.90
2022-10-08T16:22:12.661Z,99.90
2022-10-08T16:24:39.486Z,99.90
2022-10-08T16:27:06.385Z,99.90
2022-10-08T16:29:33.174Z,99.90
2022-10-08T16:31:59.917Z,99.90
2022-10-08T16:34:28.382Z,99.90
2022-10-08T16:36:55.252Z,99.90
2022-10-08T16:39:24.191Z,99.90
2022-10-08T16:41:51.373Z,99.90
2022-10-08T16:44:20.474Z,99.90
2022-10-08T16:46:50.380Z,99.90
2022-10-08T16:49:25.296Z,99.90
2022-10-08T16:51:54.280Z,99.90
2022-10-08T16:54:21.362Z,99.90
2022-10-08T16:56:48.067Z,99.90
2022-10-08T16:59:18.918Z,99.90
2022-10-08T17:01:47.947Z,99.90
2022-10-08T17:04:15.644Z,99.90
2022-10-08T17:06:43.195Z,99.90
2022-10-08T17:09:11.501Z,99.90
2022-10-08T17:11:39.133Z,99.90
2022-10-08T17:14:07.518Z,99.90
2022-10-08T17:16:35.630Z,99.90
2022-10-08T17:19:03.496Z,99.90
2022-10-08T17:21:31.465Z,99.90
2022-10-08T17:23:58.808Z,99.90
2022-10-08T17:26:27.552Z,99.90
2022-10-08T17:28:54.364Z,99.90
2022-10-08T17:31:24.130Z,99.90
2022-10-08T17:33:50.842Z,99.90
2022-10-08T17:36:20.484Z,99.90
2022-10-08T17:38:50.129Z,99.90
2022-10-08T17:41:20.042Z,99.90
2022-10-08T17:43:47.743Z,99.90
2022-10-08T17:46:23.777Z,99.90
2022-10-08T17:48:50.793Z,99.90
2022-10-08T17:51:19.924Z,99.90
2022-10-08T17:53:53.271Z,99.90
2022-10-08T17:56:20.737Z,99.90
2022-10-08T17:58:47.767Z,99.90
2022-10-08T18:01:22.620Z,99.90
2022-10-08T18:03:55.997Z,99.90
2022-10-08T18:06:23.737Z,99.90
2022-10-08T18:08:55.222Z,99.90
2022-10-08T18:11:21.882Z,99.90
2022-10-08T18:13:48.545Z,99.90
2022-10-08T18:16:17.171Z,99.90
2022-10-08T18:18:45.200Z,99.90
2022-10-08T18:21:13.928Z,99.90
2022-10-08T18:23:46.397Z,99.90
2022-10-08T18:26:16.010Z,99.90
2022-10-08T18:28:42.967Z,99.90
2022-10-08T18:31:11.278Z,99.90
2022-10-08T18:33:40.339Z,99.90
2022-10-08T18:36:12.411Z,99.90
2022-10-08T18:38:40.038Z,99.90
2022-10-08T18:41:17.818Z,99.90
2022-10-08T18:43:46.128Z,99.90
2022-10-08T18:46:14.585Z,99.90
2022-10-08T18:48:41.654Z,99.90
2022-10-08T18:51:09.893Z,99.90
2022-10-08T18:53:38.224Z,99.90
2022-10-08T18:56:07.766Z,99.90
2022-10-08T18:58:34.921Z,99.90
2022-10-08T19:01:02.025Z,99.90
2022-10-08T19:03:28.644Z,99.90
2022-10-08T19:05:55.557Z,99.90
2022-10-08T19:08:22.273Z,99.90
2022-10-08T19:10:49.085Z,99.90
2022-10-08T19:13:15.886Z,99.90
2022-10-08T19:15:42.886Z,99.90
2022-10-08T19:18:09.594Z,99.90
2022-10-08T19:20:36.510Z,99.90
2022-10-08T19:23:03.788Z,99.90
2022-10-08T19:25:30.444Z,99.90
2022-10-08T19:27:57.073Z,99.90
2022-10-08T19:30:26.617Z,99.90
2022-10-08T19:32:55.139Z,99.90
2022-10-08T19:35:21.824Z,99.90
2022-10-08T19:37:48.429Z,99.90
2022-10-08T19:40:15.100Z,99.90
2022-10-08T19:42:41.769Z,99.90
2022-10-08T19:45:08.763Z,99.90
2022-10-08T19:47:35.844Z,99.90
2022-10-08T19:50:03.078Z,99.90
2022-10-08T19:52:29.683Z,99.90
2022-10-08T19:54:56.325Z,99.90
2022-10-08T19:57:22.976Z,99.90
2022-10-08T19:59:49.632Z,99.90
2022-10-08T20:02:16.399Z,99.90
2022-10-08T20:04:44.777Z,99.90
2022-10-08T20:07:11.463Z,99.90
2022-10-08T20:09:38.165Z,99.90
2022-10-08T20:12:05.008Z,99.90
2022-10-08T20:14:31.715Z,99.90
2022-10-08T20:16:58.390Z,99.90
2022-10-08T20:19:25.073Z,99.90
2022-10-08T20:21:55.556Z,99.90
2022-10-08T20:24:22.406Z,99.90
2022-10-08T20:26:49.789Z,99.90
2022-10-08T20:29:18.955Z,99.90
2022-10-08T20:31:49.256Z,99.90
2022-10-08T20:34:23.778Z,99.90
2022-10-08T20:36:50.970Z,99.90
2022-10-08T20:39:19.710Z,99.90
2022-10-08T20:41:46.708Z,99.90
2022-10-08T20:44:14.353Z,99.90
2022-10-08T20:46:41.285Z,99.90
2022-10-08T20:49:10.012Z,99.90
2022-10-08T20:51:38.921Z,99.90
2022-10-08T20:54:08.286Z,99.90
2022-10-08T20:56:39.737Z,99.90
2022-10-08T20:59:08.232Z,99.90
2022-10-08T21:01:38.033Z,99.90
2022-10-08T21:04:06.469Z,99.90
2022-10-08T21:06:44.833Z,99.90
2022-10-08T21:09:12.232Z,99.90
2022-10-08T21:11:39.340Z,99.90
2022-10-08T21:14:07.493Z,99.90
2022-10-08T21:16:36.679Z,99.90
2022-10-08T21:19:06.779Z,99.90
2022-10-08T21:21:34.332Z,99.90
2022-10-08T21:24:01.204Z,99.90
2022-10-08T21:26:39.594Z,99.90
2022-10-08T21:29:08.846Z,99.90
2022-10-08T21:31:38.095Z,99.90
2022-10-08T21:34:06.006Z,99.90
2022-10-08T21:36:39.157Z,99.90
2022-10-08T21:39:07.872Z,99.90
2022-10-08T21:41:36.574Z,99.90
2022-10-08T21:44:05.856Z,99.90
2022-10-08T21:46:35.326Z,99.90
2022-10-08T21:49:05.349Z,99.90
2022-10-08T21:51:33.119Z,99.90
2022-10-08T21:54:01.147Z,99.90
2022-10-08T21:56:30.797Z,99.90
2022-10-08T21:58:59.500Z,99.90
2022-10-08T22:01:44.154Z,99.90
2022-10-08T22:04:11.933Z,99.90
2022-10-08T22:06:41.542Z,99.90
2022-10-08T22:09:11.633Z,99.90
2022-10-08T22:11:39.220Z,99.90
2022-10-08T22:14:06.296Z,99.90
2022-10-08T22:16:33.337Z,99.90
2022-10-08T22:19:00.282Z,99.90
2022-10-08T22:21:27.392Z,99.90
2022-10-08T22:23:54.175Z,99.90
2022-10-08T22:26:23.576Z,99.90
2022-10-08T22:28:51.110Z,99.90
2022-10-08T22:31:19.553Z,99.90
2022-10-08T22:33:46.859Z,99.90
2022-10-08T22:36:22.361Z,99.90
2022-10-08T22:38:49.347Z,99.90
2022-10-08T22:41:27.889Z,99.90
2022-10-08T22:43:54.679Z,99.90
2022-10-08T22:46:27.527Z,99.90
2022-10-08T22:48:59.521Z,99.90
2022-10-08T22:51:27.242Z,99.90
2022-10-08T22:53:54.085Z,99.90
2022-10-08T22:56:23.280Z,99.90
2022-10-08T22:58:50.813Z,99.90
2022-10-08T23:01:20.493Z,99.90
2022-10-08T23:03:47.697Z,99.90
2022-10-08T23:06:14.380Z,99.90
2022-10-08T23:08:41.868Z,99.90
2022-10-08T23:11:08.931Z,99.90
2022-10-08T23:13:35.615Z,99.90
2022-10-08T23:16:10.888Z,99.90
2022-10-08T23:18:40.016Z,99.90
2022-10-08T23:21:15.940Z,99.90
2022-10-08T23:23:46.855Z,99.90
2022-10-08T23:26:14.198Z,99.90
2022-10-08T23:28:41.503Z,99.90
2022-10-08T23:31:11.440Z,99.90
2022-10-08T23:33:39.664Z,99.90
2022-10-08T23:36:08.282Z,99.90
2022-10-08T23:38:35.966Z,99.90
2022-10-08T23:41:05.092Z,99.90
2022-10-08T23:43:40.046Z,99.90
2022-10-08T23:46:07.994Z,99.90
2022-10-08T23:48:35.062Z,99.90
2022-10-08T23:51:02.394Z,99.90
2022-10-08T23:53:29.074Z,99.90
2022-10-08T23:55:55.770Z,99.90
2022-10-08T23:58:22.598Z,99.90
